Time,TemperatureF,DewpointF,PressureIn,WindDirection,WindDirectionDegrees,WindSpeedMPH,WindSpeedGustMPH,Humidity,HourlyPrecipIn,Conditions,Clouds,dailyrainin,SoftwareType,DateUTC
2013-06-05 00:05:00,52.2,47.8,30.14,WNW,300,0.0,0.0,85,0.00,,,0.00,Wunderground v.1.15,2013-06-05 04:05:00,
2013-06-05 00:10:00,52.4,47.7,30.15,WNW,300,0.0,2.0,84,0.00,,,0.00,Wunderground v.1.15,2013-06-05 04:10:00,
2013-06-05 00:15:00,52.4,47.1,30.14,WNW,300,0.0,1.0,82,0.00,,,0.00,Wunderground v.1.15,2013-06-05 04:15:00,
2013-06-05 00:20:00,52.7,47.7,30.15,WNW,300,2.0,2.0,83,0.00,,,0.00,Wunderground v.1.15,2013-06-05 04:20:00,
2013-06-05 00:26:00,52.8,47.5,30.15,WNW,300,0.0,0.0,82,0.00,,,0.00,Wunderground v.1.15,2013-06-05 04:26:00,
2013-06-05 00:31:00,52.6,47.6,30.15,WNW,300,0.0,0.0,83,0.00,,,0.00,Wunderground v.1.15,2013-06-05 04:31:00,
2013-06-05 00:37:00,52.3,47.6,30.16,WNW,300,0.0,1.0,84,0.00,,,0.00,Wunderground v.1.15,2013-06-05 04:37:00,
2013-06-05 00:43:00,52.2,47.2,30.16,WNW,300,0.0,0.0,83,0.00,,,0.00,Wunderground v.1.15,2013-06-05 04:43:00,
2013-06-05 00:48:00,52.2,47.2,30.16,WNW,300,0.0,0.0,83,0.00,,,0.00,Wunderground v.1.15,2013-06-05 04:48:00,
2013-06-05 00:54:00,52.1,47.4,30.16,WNW,300,0.0,0.0,84,0.00,,,0.00,Wunderground v.1.15,2013-06-05 04:54:00,
2013-06-05 01:00:00,51.9,46.9,30.16,WNW,300,0.0,1.0,83,0.00,,,0.00,Wunderground v.1.15,2013-06-05 05:00:00,
2013-06-05 01:06:00,51.8,47.1,30.16,WNW,300,0.0,1.0,84,0.00,,,0.00,Wunderground v.1.15,2013-06-05 05:06:00,
2013-06-05 01:11:00,51.6,47.2,30.16,WNW,300,0.0,1.0,85,0.00,,,0.00,Wunderground v.1.15,2013-06-05 05:11:00,
2013-06-05 01:17:00,51.3,46.9,30.16,WNW,300,1.0,1.0,85,0.00,,,0.00,Wunderground v.1.15,2013-06-05 05:17:00,
2013-06-05 01:22:00,51.1,47.1,30.16,WNW,300,0.0,0.0,86,0.00,,,0.00,Wunderground v.1.15,2013-06-05 05:22:00,
2013-06-05 01:27:00,50.9,46.9,30.16,WNW,300,0.0,0.0,86,0.00,,,0.00,Wunderground v.1.15,2013-06-05 05:27:00,
2013-06-05 01:33:00,50.6,46.6,30.17,WNW,300,0.0,0.0,86,0.00,,,0.00,Wunderground v.1.15,2013-06-05 05:33:00,
2013-06-05 01:39:00,50.2,46.5,30.17,WNW,300,0.0,0.0,87,0.00,,,0.00,Wunderground v.1.15,2013-06-05 05:39:00,
2013-06-05 01:45:00,49.9,46.2,30.16,WNW,300,0.0,0.0,87,0.00,,,0.00,Wunderground v.1.15,2013-06-05 05:45:00,
2013-06-05 01:51:00,49.9,46.5,30.16,WNW,300,0.0,0.0,88,0.00,,,0.00,Wunderground v.1.15,2013-06-05 05:51:00,
2013-06-05 01:57:00,49.9,46.2,30.16,WNW,300,0.0,0.0,87,0.00,,,0.00,Wunderground v.1.15,2013-06-05 05:57:00,
2013-06-05 02:03:00,49.6,46.2,30.16,WNW,300,0.0,0.0,88,0.00,,,0.00,Wunderground v.1.15,2013-06-05 06:03:00,
2013-06-05 02:09:00,49.4,46.0,30.16,WNW,300,0.0,0.0,88,0.00,,,0.00,Wunderground v.1.15,2013-06-05 06:09:00,
2013-06-05 02:14:00,49.3,45.9,30.16,WNW,300,0.0,0.0,88,0.00,,,0.00,Wunderground v.1.15,2013-06-05 06:14:00,
2013-06-05 02:20:00,49.2,45.8,30.16,WNW,300,0.0,0.0,88,0.00,,,0.00,Wunderground v.1.15,2013-06-05 06:20:00,
2013-06-05 02:25:00,49.1,45.7,30.16,WNW,300,0.0,0.0,88,0.00,,,0.00,Wunderground v.1.15,2013-06-05 06:25:00,
2013-06-05 02:30:00,48.8,45.4,30.16,WNW,300,0.0,0.0,88,0.00,,,0.00,Wunderground v.1.15,2013-06-05 06:30:00,
2013-06-05 02:35:00,48.7,45.3,30.16,WNW,300,0.0,0.0,88,0.00,,,0.00,Wunderground v.1.15,2013-06-05 06:35:00,
2013-06-05 02:40:00,48.7,45.6,30.17,WNW,300,0.0,0.0,89,0.00,,,0.00,Wunderground v.1.15,2013-06-05 06:40:00,
2013-06-05 02:41:00,47.9,44.8,30.17,WNW,300,1.0,2.0,89,0.00,,,0.00,Wunderground v.1.15,2013-06-05 06:41:00,
2013-06-05 02:42:00,47.9,44.8,30.17,WNW,300,0.0,2.0,89,0.00,,,0.00,Wunderground v.1.15,2013-06-05 06:42:00,
2013-06-05 02:43:00,47.8,44.7,30.17,WNW,300,0.0,2.0,89,0.00,,,0.00,Wunderground v.1.15,2013-06-05 06:43:00,
2013-06-05 02:44:00,47.8,44.7,30.17,WNW,300,0.0,2.0,89,0.00,,,0.00,Wunderground v.1.15,2013-06-05 06:44:00,
2013-06-05 02:45:00,48.7,45.6,30.17,WNW,300,0.0,1.0,89,0.00,,,0.00,Wunderground v.1.15,2013-06-05 06:45:00,
2013-06-05 02:46:00,47.6,44.5,30.17,WNW,300,1.0,2.0,89,0.00,,,0.00,Wunderground v.1.15,2013-06-05 06:46:00,
2013-06-05 02:50:00,48.5,45.4,30.17,WNW,300,0.0,1.0,89,0.00,,,0.00,Wunderground v.1.15,2013-06-05 06:50:00,
2013-06-05 02:55:00,48.4,45.3,30.17,WNW,300,0.0,1.0,89,0.00,,,0.00,Wunderground v.1.15,2013-06-05 06:55:00,
2013-06-05 03:00:00,48.1,45.0,30.17,WNW,300,0.0,1.0,89,0.00,,,0.00,Wunderground v.1.15,2013-06-05 07:00:00,
2013-06-05 03:05:00,47.8,44.7,30.17,WNW,300,0.0,2.0,89,0.00,,,0.00,Wunderground v.1.15,2013-06-05 07:05:00,
2013-06-05 03:10:00,47.5,44.4,30.17,WNW,300,1.0,2.0,89,0.00,,,0.00,Wunderground v.1.15,2013-06-05 07:10:00,
2013-06-05 03:15:00,47.3,44.2,30.17,WNW,300,0.0,1.0,89,0.00,,,0.00,Wunderground v.1.15,2013-06-05 07:15:00,
2013-06-05 03:20:00,47.1,44.0,30.17,WNW,300,0.0,1.0,89,0.00,,,0.00,Wunderground v.1.15,2013-06-05 07:20:00,
2013-06-05 03:25:00,46.9,43.8,30.17,WNW,300,0.0,1.0,89,0.00,,,0.00,Wunderground v.1.15,2013-06-05 07:25:00,
2013-06-05 03:30:00,46.9,43.8,30.17,WNW,300,0.0,1.0,89,0.00,,,0.00,Wunderground v.1.15,2013-06-05 07:30:00,
2013-06-05 03:35:00,46.9,43.8,30.17,WNW,300,1.0,1.0,89,0.00,,,0.00,Wunderground v.1.15,2013-06-05 07:35:00,
2013-06-05 03:40:00,46.8,43.7,30.17,WNW,300,0.0,1.0,89,0.00,,,0.00,Wunderground v.1.15,2013-06-05 07:40:00,
2013-06-05 03:45:00,46.8,43.7,30.18,WNW,300,0.0,1.0,89,0.00,,,0.00,Wunderground v.1.15,2013-06-05 07:45:00,
2013-06-05 03:50:00,46.8,43.7,30.18,WNW,300,0.0,1.0,89,0.00,,,0.00,Wunderground v.1.15,2013-06-05 07:50:00,
2013-06-05 03:55:00,46.8,43.7,30.17,WNW,300,0.0,1.0,89,0.00,,,0.00,Wunderground v.1.15,2013-06-05 07:55:00,
2013-06-05 04:00:00,46.8,43.7,30.18,WNW,300,0.0,1.0,89,0.00,,,0.00,Wunderground v.1.15,2013-06-05 08:00:00,
2013-06-05 04:05:00,46.7,43.6,30.18,WNW,300,0.0,1.0,89,0.00,,,0.00,Wunderground v.1.15,2013-06-05 08:05:00,
2013-06-05 04:10:00,46.6,43.5,30.18,WNW,300,0.0,1.0,89,0.00,,,0.00,Wunderground v.1.15,2013-06-05 08:10:00,
2013-06-05 04:15:00,46.6,43.5,30.18,WNW,300,0.0,1.0,89,0.00,,,0.00,Wunderground v.1.15,2013-06-05 08:15:00,
2013-06-05 04:20:00,46.6,43.5,30.18,WNW,300,0.0,1.0,89,0.00,,,0.00,Wunderground v.1.15,2013-06-05 08:20:00,
2013-06-05 04:25:00,46.5,43.7,30.18,WNW,300,0.0,1.0,90,0.00,,,0.00,Wunderground v.1.15,2013-06-05 08:25:00,
2013-06-05 04:30:00,46.4,43.3,30.18,WNW,300,0.0,1.0,89,0.00,,,0.00,Wunderground v.1.15,2013-06-05 08:30:00,
2013-06-05 04:35:00,46.3,43.2,30.18,WNW,300,0.0,1.0,89,0.00,,,0.00,Wunderground v.1.15,2013-06-05 08:35:00,
2013-06-05 04:40:00,46.2,43.1,30.18,WNW,300,0.0,2.0,89,0.00,,,0.00,Wunderground v.1.15,2013-06-05 08:40:00,
2013-06-05 04:45:00,46.1,43.0,30.18,WNW,300,1.0,3.0,89,0.00,,,0.00,Wunderground v.1.15,2013-06-05 08:45:00,
2013-06-05 04:50:00,46.1,43.0,30.18,WNW,300,0.0,3.0,89,0.00,,,0.00,Wunderground v.1.15,2013-06-05 08:50:00,
2013-06-05 04:55:00,46.1,43.3,30.18,WNW,300,0.0,1.0,90,0.00,,,0.00,Wunderground v.1.15,2013-06-05 08:55:00,
2013-06-05 05:00:00,46.1,43.3,30.19,WNW,300,0.0,2.0,90,0.00,,,0.00,Wunderground v.1.15,2013-06-05 09:00:00,
2013-06-05 05:05:00,46.0,43.2,30.19,WNW,300,0.0,1.0,90,0.00,,,0.00,Wunderground v.1.15,2013-06-05 09:05:00,
2013-06-05 05:10:00,45.9,43.1,30.19,WNW,300,0.0,1.0,90,0.00,,,0.00,Wunderground v.1.15,2013-06-05 09:10:00,
2013-06-05 05:15:00,45.9,43.1,30.19,WNW,300,0.0,1.0,90,0.00,,,0.00,Wunderground v.1.15,2013-06-05 09:15:00,
2013-06-05 05:20:00,45.9,43.1,30.20,WNW,300,0.0,1.0,90,0.00,,,0.00,Wunderground v.1.15,2013-06-05 09:20:00,
2013-06-05 05:25:00,45.8,43.0,30.20,WNW,300,0.0,1.0,90,0.00,,,0.00,Wunderground v.1.15,2013-06-05 09:25:00,
2013-06-05 05:30:00,45.8,43.0,30.20,WNW,300,0.0,1.0,90,0.00,,,0.00,Wunderground v.1.15,2013-06-05 09:30:00,
2013-06-05 05:35:00,45.8,43.0,30.20,WNW,300,1.0,1.0,90,0.00,,,0.00,Wunderground v.1.15,2013-06-05 09:35:00,
2013-06-05 05:40:00,45.8,43.0,30.20,WNW,300,0.0,1.0,90,0.00,,,0.00,Wunderground v.1.15,2013-06-05 09:40:00,
2013-06-05 05:45:00,45.9,43.1,30.20,WNW,300,0.0,1.0,90,0.00,,,0.00,Wunderground v.1.15,2013-06-05 09:45:00,
2013-06-05 05:50:00,46.0,43.2,30.20,WNW,300,1.0,1.0,90,0.00,,,0.00,Wunderground v.1.15,2013-06-05 09:50:00,
2013-06-05 05:55:00,46.1,43.3,30.20,WNW,300,0.0,1.0,90,0.00,,,0.00,Wunderground v.1.15,2013-06-05 09:55:00,
2013-06-05 06:00:00,46.1,43.3,30.20,WNW,300,0.0,1.0,90,0.00,,,0.00,Wunderground v.1.15,2013-06-05 10:00:00,
2013-06-05 06:05:00,46.4,43.3,30.20,WNW,300,0.0,1.0,89,0.00,,,0.00,Wunderground v.1.15,2013-06-05 10:05:00,
2013-06-05 06:10:00,46.9,43.8,30.21,WNW,300,0.0,1.0,89,0.00,,,0.00,Wunderground v.1.15,2013-06-05 10:10:00,
2013-06-05 06:15:00,47.5,44.7,30.21,WNW,300,0.0,1.0,90,0.00,,,0.00,Wunderground v.1.15,2013-06-05 10:15:00,
2013-06-05 06:20:00,48.5,45.7,30.21,WNW,300,0.0,1.0,90,0.00,,,0.00,Wunderground v.1.15,2013-06-05 10:20:00,
2013-06-05 06:25:00,49.4,46.0,30.21,WNW,300,1.0,2.0,88,0.00,,,0.00,Wunderground v.1.15,2013-06-05 10:25:00,
2013-06-05 06:30:00,50.2,46.5,30.21,WNW,300,0.0,2.0,87,0.00,,,0.00,Wunderground v.1.15,2013-06-05 10:30:00,
2013-06-05 06:35:00,51.0,47.0,30.22,WNW,300,0.0,1.0,86,0.00,,,0.00,Wunderground v.1.15,2013-06-05 10:35:00,
2013-06-05 06:40:00,51.5,46.8,30.22,WNW,300,0.0,2.0,84,0.00,,,0.00,Wunderground v.1.15,2013-06-05 10:40:00,
2013-06-05 06:45:00,51.8,46.8,30.22,WNW,300,0.0,1.0,83,0.00,,,0.00,Wunderground v.1.15,2013-06-05 10:45:00,
2013-06-05 06:50:00,52.0,46.7,30.22,WNW,300,1.0,2.0,82,0.00,,,0.00,Wunderground v.1.15,2013-06-05 10:50:00,
2013-06-05 06:55:00,52.2,46.9,30.22,WNW,286,0.0,4.0,82,0.00,,,0.00,Wunderground v.1.15,2013-06-05 10:55:00,
2013-06-05 07:00:00,52.4,47.1,30.22,WNW,302,2.0,4.0,82,0.00,,,0.00,Wunderground v.1.15,2013-06-05 11:00:00,
2013-06-05 07:05:00,52.6,47.3,30.22,NW,308,4.0,7.0,82,0.00,,,0.00,Wunderground v.1.15,2013-06-05 11:05:00,
2013-06-05 07:10:00,52.9,47.6,30.22,NW,310,1.0,7.0,82,0.00,,,0.00,Wunderground v.1.15,2013-06-05 11:10:00,
2013-06-05 07:15:00,53.2,47.8,30.23,WNW,303,3.0,4.0,82,0.00,,,0.00,Wunderground v.1.15,2013-06-05 11:15:00,
2013-06-05 07:20:00,53.6,48.2,30.22,NW,311,3.0,5.0,82,0.00,,,0.00,Wunderground v.1.15,2013-06-05 11:20:00,
2013-06-05 07:25:00,54.0,48.3,30.22,WNW,294,1.0,4.0,81,0.00,,,0.00,Wunderground v.1.15,2013-06-05 11:25:00,
2013-06-05 07:30:00,54.3,47.9,30.23,NW,315,4.0,5.0,79,0.00,,,0.00,Wunderground v.1.15,2013-06-05 11:30:00,
2013-06-05 07:35:00,54.7,48.0,30.23,NW,307,2.0,5.0,78,0.00,,,0.00,Wunderground v.1.15,2013-06-05 11:35:00,
2013-06-05 07:40:00,55.2,48.8,30.23,WNW,301,1.0,5.0,79,0.00,,,0.00,Wunderground v.1.15,2013-06-05 11:40:00,
2013-06-05 07:45:00,55.9,49.1,30.23,WNW,302,0.0,3.0,78,0.00,,,0.00,Wunderground v.1.15,2013-06-05 11:45:00,
2013-06-05 07:50:00,56.5,48.3,30.23,NW,309,3.0,8.0,74,0.00,,,0.00,Wunderground v.1.15,2013-06-05 11:50:00,
2013-06-05 07:55:00,56.9,48.3,30.23,WNW,301,1.0,6.0,73,0.00,,,0.00,Wunderground v.1.15,2013-06-05 11:55:00,
2013-06-05 08:00:00,57.5,48.9,30.23,NW,310,1.0,6.0,73,0.00,,,0.00,Wunderground v.1.15,2013-06-05 12:00:00,
2013-06-05 08:05:00,58.0,48.3,30.23,NW,321,2.0,5.0,70,0.00,,,0.00,Wunderground v.1.15,2013-06-05 12:05:00,
2013-06-05 08:10:00,58.4,47.9,30.23,NW,324,5.0,7.0,68,0.00,,,0.00,Wunderground v.1.15,2013-06-05 12:10:00,
2013-06-05 08:15:00,58.7,47.8,30.23,WNW,301,2.0,6.0,67,0.00,,,0.00,Wunderground v.1.15,2013-06-05 12:15:00,
2013-06-05 08:20:00,59.3,47.5,30.23,NW,304,2.0,6.0,65,0.00,,,0.00,Wunderground v.1.15,2013-06-05 12:20:00,
2013-06-05 08:25:00,60.1,49.1,30.24,NW,305,0.0,2.0,67,0.00,,,0.00,Wunderground v.1.15,2013-06-05 12:25:00,
2013-06-05 08:30:00,60.8,47.3,30.24,NNW,335,0.0,5.0,61,0.00,,,0.00,Wunderground v.1.15,2013-06-05 12:30:00,
2013-06-05 08:35:00,60.8,46.8,30.24,WNW,284,3.0,5.0,60,0.00,,,0.00,Wunderground v.1.15,2013-06-05 12:35:00,
2013-06-05 08:40:00,60.5,45.6,30.24,WNW,296,4.0,9.0,58,0.00,,,0.00,Wunderground v.1.15,2013-06-05 12:40:00,
2013-06-05 08:45:00,60.7,45.4,30.24,WSW,256,5.0,6.0,57,0.00,,,0.00,Wunderground v.1.15,2013-06-05 12:45:00,
2013-06-05 08:50:00,61.0,45.7,30.24,NW,313,3.0,7.0,57,0.00,,,0.00,Wunderground v.1.15,2013-06-05 12:50:00,
2013-06-05 08:55:00,61.2,45.8,30.24,West,281,0.0,6.0,57,0.00,,,0.00,Wunderground v.1.15,2013-06-05 12:55:00,
2013-06-05 09:00:00,62.3,46.4,30.24,NNW,343,1.0,6.0,56,0.00,,,0.00,Wunderground v.1.15,2013-06-05 13:00:00,
2013-06-05 09:05:00,63.1,46.2,30.24,WNW,298,2.0,8.0,54,0.00,,,0.00,Wunderground v.1.15,2013-06-05 13:05:00,
2013-06-05 09:10:00,62.6,49.4,30.24,NW,304,0.0,8.0,62,0.00,,,0.00,Wunderground v.1.15,2013-06-05 13:10:00,
2013-06-05 09:15:00,63.8,45.8,30.24,NW,311,5.0,6.0,52,0.00,,,0.00,Wunderground v.1.15,2013-06-05 13:15:00,
2013-06-05 09:20:00,63.4,46.0,30.24,WNW,296,1.0,6.0,53,0.00,,,0.00,Wunderground v.1.15,2013-06-05 13:20:00,
2013-06-05 09:25:00,63.8,45.8,30.24,WNW,299,2.0,4.0,52,0.00,,,0.00,Wunderground v.1.15,2013-06-05 13:25:00,
2013-06-05 09:30:00,63.6,45.6,30.24,NNW,327,2.0,6.0,52,0.00,,,0.00,Wunderground v.1.15,2013-06-05 13:30:00,
2013-06-05 09:35:00,63.2,45.8,30.24,West,281,3.0,8.0,53,0.00,,,0.00,Wunderground v.1.15,2013-06-05 13:35:00,
2013-06-05 09:40:00,62.7,45.3,30.24,West,259,2.0,8.0,53,0.00,,,0.00,Wunderground v.1.15,2013-06-05 13:40:00,
2013-06-05 09:45:00,63.2,46.3,30.24,WNW,299,4.0,4.0,54,0.00,,,0.00,Wunderground v.1.15,2013-06-05 13:45:00,
2013-06-05 09:50:00,63.2,45.3,30.24,WNW,298,5.0,7.0,52,0.00,,,0.00,Wunderground v.1.15,2013-06-05 13:50:00,
2013-06-05 09:55:00,63.1,45.7,30.24,NNW,327,1.0,5.0,53,0.00,,,0.00,Wunderground v.1.15,2013-06-05 13:55:00,
2013-06-05 10:00:00,63.9,45.4,30.24,NW,319,1.0,5.0,51,0.00,,,0.00,Wunderground v.1.15,2013-06-05 14:00:00,
2013-06-05 10:05:00,64.9,45.8,30.24,East,91,4.0,4.0,50,0.00,,,0.00,Wunderground v.1.15,2013-06-05 14:05:00,
2013-06-05 10:10:00,64.5,45.4,30.24,West,281,6.0,9.0,50,0.00,,,0.00,Wunderground v.1.15,2013-06-05 14:10:00,
2013-06-05 10:15:00,64.1,45.6,30.23,ENE,71,3.0,4.0,51,0.00,,,0.00,Wunderground v.1.15,2013-06-05 14:15:00,
2013-06-05 10:20:00,64.3,45.8,30.23,NNW,333,2.0,7.0,51,0.00,,,0.00,Wunderground v.1.15,2013-06-05 14:20:00,
2013-06-05 10:25:00,64.6,46.1,30.24,NNW,332,1.0,6.0,51,0.00,,,0.00,Wunderground v.1.15,2013-06-05 14:25:00,
2013-06-05 10:30:00,65.2,46.1,30.23,West,269,0.0,6.0,50,0.00,,,0.00,Wunderground v.1.15,2013-06-05 14:30:00,
2013-06-05 10:35:00,65.9,46.7,30.23,North,360,2.0,2.0,50,0.00,,,0.00,Wunderground v.1.15,2013-06-05 14:35:00,
2013-06-05 10:40:00,66.5,47.3,30.23,SW,230,0.0,3.0,50,0.00,,,0.00,Wunderground v.1.15,2013-06-05 14:40:00,
2013-06-05 10:45:00,66.7,45.3,30.23,North,11,2.0,6.0,46,0.00,,,0.00,Wunderground v.1.15,2013-06-05 14:45:00,
2013-06-05 10:50:00,65.7,44.9,30.23,WSW,258,0.0,6.0,47,0.00,,,0.00,Wunderground v.1.15,2013-06-05 14:50:00,
2013-06-05 10:55:00,66.1,46.4,30.23,WNW,292,3.0,3.0,49,0.00,,,0.00,Wunderground v.1.15,2013-06-05 14:55:00,
2013-06-05 11:00:00,66.3,46.0,30.23,East,90,2.0,4.0,48,0.00,,,0.00,Wunderground v.1.15,2013-06-05 15:00:00,
2013-06-05 11:05:00,66.6,45.2,30.23,East,94,6.0,7.0,46,0.00,,,0.00,Wunderground v.1.15,2013-06-05 15:05:00,
2013-06-05 11:10:00,66.4,45.0,30.23,NW,319,2.0,8.0,46,0.00,,,0.00,Wunderground v.1.15,2013-06-05 15:10:00,
2013-06-05 11:15:00,66.3,46.0,30.23,West,265,2.0,6.0,48,0.00,,,0.00,Wunderground v.1.15,2013-06-05 15:15:00,
2013-06-05 11:20:00,66.8,45.9,30.24,WSW,240,1.0,6.0,47,0.00,,,0.00,Wunderground v.1.15,2013-06-05 15:20:00,
2013-06-05 11:25:00,66.9,44.9,30.23,WNW,294,1.0,8.0,45,0.00,,,0.00,Wunderground v.1.15,2013-06-05 15:25:00,
2013-06-05 11:30:00,66.5,45.1,30.24,WNW,302,0.0,9.0,46,0.00,,,0.00,Wunderground v.1.15,2013-06-05 15:30:00,
2013-06-05 11:35:00,67.1,46.7,30.23,NW,308,1.0,7.0,48,0.00,,,0.00,Wunderground v.1.15,2013-06-05 15:35:00,
2013-06-05 11:40:00,67.2,46.3,30.23,WNW,294,4.0,8.0,47,0.00,,,0.00,Wunderground v.1.15,2013-06-05 15:40:00,
2013-06-05 11:45:00,66.6,44.6,30.23,WNW,290,0.0,4.0,45,0.00,,,0.00,Wunderground v.1.15,2013-06-05 15:45:00,
2013-06-05 11:50:00,66.9,46.0,30.23,WNW,296,3.0,7.0,47,0.00,,,0.00,Wunderground v.1.15,2013-06-05 15:50:00,
2013-06-05 11:55:00,66.3,44.9,30.23,WNW,299,3.0,7.0,46,0.00,,,0.00,Wunderground v.1.15,2013-06-05 15:55:00,
2013-06-05 12:00:00,66.2,44.2,30.23,SW,232,6.0,7.0,45,0.00,,,0.00,Wunderground v.1.15,2013-06-05 16:00:00,
2013-06-05 12:05:00,67.0,45.5,30.23,NW,308,1.0,5.0,46,0.00,,,0.00,Wunderground v.1.15,2013-06-05 16:05:00,
2013-06-05 12:10:00,67.0,45.5,30.22,East,98,0.0,5.0,46,0.00,,,0.00,Wunderground v.1.15,2013-06-05 16:10:00,
2013-06-05 12:15:00,67.9,45.8,30.22,SE,129,2.0,4.0,45,0.00,,,0.00,Wunderground v.1.15,2013-06-05 16:15:00,
2013-06-05 12:20:00,68.2,46.0,30.22,South,178,3.0,4.0,45,0.00,,,0.00,Wunderground v.1.15,2013-06-05 16:20:00,
2013-06-05 12:25:00,68.6,47.0,30.22,NNE,28,3.0,3.0,46,0.00,,,0.00,Wunderground v.1.15,2013-06-05 16:25:00,
2013-06-05 12:30:00,69.3,46.4,30.22,ESE,111,3.0,4.0,44,0.00,,,0.00,Wunderground v.1.15,2013-06-05 16:30:00,
2013-06-05 12:35:00,69.4,46.5,30.21,WNW,286,6.0,6.0,44,0.00,,,0.00,Wunderground v.1.15,2013-06-05 16:35:00,
2013-06-05 12:40:00,68.5,45.1,30.21,WNW,292,2.0,7.0,43,0.00,,,0.00,Wunderground v.1.15,2013-06-05 16:40:00,
2013-06-05 12:45:00,68.0,45.3,30.21,WNW,292,1.0,6.0,44,0.00,,,0.00,Wunderground v.1.15,2013-06-05 16:45:00,
2013-06-05 12:50:00,68.3,44.3,30.21,SSE,155,2.0,6.0,42,0.00,,,0.00,Wunderground v.1.15,2013-06-05 16:50:00,
2013-06-05 12:55:00,69.1,46.3,30.21,South,184,4.0,5.0,44,0.00,,,0.00,Wunderground v.1.15,2013-06-05 16:55:00,
2013-06-05 13:00:00,69.6,46.1,30.21,West,262,2.0,8.0,43,0.00,,,0.00,Wunderground v.1.15,2013-06-05 17:00:00,
2013-06-05 13:05:00,69.1,45.0,30.20,South,175,6.0,6.0,42,0.00,,,0.00,Wunderground v.1.15,2013-06-05 17:05:00,
2013-06-05 13:10:00,69.2,44.5,30.20,SSE,157,2.0,7.0,41,0.00,,,0.00,Wunderground v.1.15,2013-06-05 17:10:00,
2013-06-05 13:15:00,69.0,44.3,30.20,SW,229,2.0,5.0,41,0.00,,,0.00,Wunderground v.1.15,2013-06-05 17:15:00,
2013-06-05 13:20:00,69.6,45.5,30.20,SSW,192,3.0,5.0,42,0.00,,,0.00,Wunderground v.1.15,2013-06-05 17:20:00,
2013-06-05 13:25:00,69.7,46.2,30.20,SSW,201,6.0,9.0,43,0.00,,,0.00,Wunderground v.1.15,2013-06-05 17:25:00,
2013-06-05 13:30:00,69.8,46.9,30.20,West,267,2.0,9.0,44,0.00,,,0.00,Wunderground v.1.15,2013-06-05 17:30:00,
2013-06-05 13:35:00,69.7,46.8,30.19,SSW,197,3.0,9.0,44,0.00,,,0.00,Wunderground v.1.15,2013-06-05 17:35:00,
2013-06-05 13:40:00,69.9,46.4,30.19,SW,224,0.0,9.0,43,0.00,,,0.00,Wunderground v.1.15,2013-06-05 17:40:00,
2013-06-05 13:45:00,69.9,46.4,30.19,SSW,194,3.0,8.0,43,0.00,,,0.00,Wunderground v.1.15,2013-06-05 17:45:00,
2013-06-05 13:50:00,69.9,45.8,30.19,WNW,295,0.0,8.0,42,0.00,,,0.00,Wunderground v.1.15,2013-06-05 17:50:00,
2013-06-05 13:55:00,69.4,45.3,30.19,WSW,250,3.0,12.0,42,0.00,,,0.00,Wunderground v.1.15,2013-06-05 17:55:00,
2013-06-05 14:00:00,69.8,46.3,30.19,SW,216,1.0,12.0,43,0.00,,,0.00,Wunderground v.1.15,2013-06-05 18:00:00,
2013-06-05 14:05:00,70.0,45.8,30.19,South,182,2.0,3.0,42,0.00,,,0.00,Wunderground v.1.15,2013-06-05 18:05:00,
2013-06-05 14:10:00,69.8,46.3,30.19,WNW,290,3.0,10.0,43,0.00,,,0.00,Wunderground v.1.15,2013-06-05 18:10:00,
2013-06-05 14:15:00,70.2,46.0,30.19,NE,41,2.0,9.0,42,0.00,,,0.00,Wunderground v.1.15,2013-06-05 18:15:00,
2013-06-05 14:20:00,70.5,46.3,30.19,SW,236,4.0,9.0,42,0.00,,,0.00,Wunderground v.1.15,2013-06-05 18:20:00,
2013-06-05 14:25:00,71.0,45.5,30.19,SSW,199,2.0,7.0,40,0.00,,,0.00,Wunderground v.1.15,2013-06-05 18:25:00,
2013-06-05 14:30:00,70.7,46.5,30.20,SW,221,4.0,8.0,42,0.00,,,0.00,Wunderground v.1.15,2013-06-05 18:30:00,
2013-06-05 14:35:00,70.5,44.3,30.19,SSW,202,1.0,7.0,39,0.00,,,0.00,Wunderground v.1.15,2013-06-05 18:35:00,
2013-06-05 14:40:00,70.7,45.2,30.18,East,94,1.0,7.0,40,0.00,,,0.00,Wunderground v.1.15,2013-06-05 18:40:00,
2013-06-05 14:45:00,71.1,45.5,30.17,SE,140,2.0,6.0,40,0.00,,,0.00,Wunderground v.1.15,2013-06-05 18:45:00,
2013-06-05 14:50:00,71.5,45.9,30.17,West,277,4.0,10.0,40,0.00,,,0.00,Wunderground v.1.15,2013-06-05 18:50:00,
2013-06-05 14:55:00,71.5,47.8,30.17,WSW,256,3.0,6.0,43,0.00,,,0.00,Wunderground v.1.15,2013-06-05 18:55:00,
2013-06-05 15:00:00,71.5,46.6,30.17,South,182,1.0,6.0,41,0.00,,,0.00,Wunderground v.1.15,2013-06-05 19:00:00,
2013-06-05 15:05:00,70.9,46.7,30.17,SW,232,0.0,5.0,42,0.00,,,0.00,Wunderground v.1.15,2013-06-05 19:05:00,
2013-06-05 15:10:00,70.8,47.8,30.17,SW,215,3.0,5.0,44,0.00,,,0.00,Wunderground v.1.15,2013-06-05 19:10:00,
2013-06-05 15:15:00,71.7,47.4,30.17,North,360,0.0,3.0,42,0.00,,,0.00,Wunderground v.1.15,2013-06-05 19:15:00,
2013-06-05 15:20:00,71.5,45.9,30.17,WNW,290,2.0,9.0,40,0.00,,,0.00,Wunderground v.1.15,2013-06-05 19:20:00,
2013-06-05 15:25:00,71.0,46.1,30.17,West,263,0.0,5.0,41,0.00,,,0.00,Wunderground v.1.15,2013-06-05 19:25:00,
2013-06-05 15:30:00,71.3,47.0,30.17,SSW,204,1.0,5.0,42,0.00,,,0.00,Wunderground v.1.15,2013-06-05 19:30:00,
2013-06-05 15:35:00,71.3,46.4,30.16,WNW,286,1.0,5.0,41,0.00,,,0.00,Wunderground v.1.15,2013-06-05 19:35:00,
2013-06-05 15:40:00,71.3,46.4,30.16,West,267,0.0,5.0,41,0.00,,,0.00,Wunderground v.1.15,2013-06-05 19:40:00,
2013-06-05 15:45:00,71.4,47.1,30.16,West,259,3.0,9.0,42,0.00,,,0.00,Wunderground v.1.15,2013-06-05 19:45:00,
2013-06-05 15:50:00,71.4,46.5,30.15,WSW,250,1.0,9.0,41,0.00,,,0.00,Wunderground v.1.15,2013-06-05 19:50:00,
2013-06-05 15:55:00,71.3,45.7,30.15,SSW,210,1.0,5.0,40,0.00,,,0.00,Wunderground v.1.15,2013-06-05 19:55:00,
2013-06-05 16:00:00,71.5,47.2,30.15,SW,235,3.0,5.0,42,0.00,,,0.00,Wunderground v.1.15,2013-06-05 20:00:00,
2013-06-05 16:05:00,71.3,47.0,30.16,West,267,2.0,5.0,42,0.00,,,0.00,Wunderground v.1.15,2013-06-05 20:05:00,
2013-06-05 16:10:00,71.3,48.9,30.15,SW,219,2.0,7.0,45,0.00,,,0.00,Wunderground v.1.15,2013-06-05 20:10:00,
2013-06-05 16:15:00,71.2,46.9,30.15,SSW,194,2.0,6.0,42,0.00,,,0.00,Wunderground v.1.15,2013-06-05 20:15:00,
2013-06-05 16:20:00,71.4,47.1,30.15,SSW,194,1.0,6.0,42,0.00,,,0.00,Wunderground v.1.15,2013-06-05 20:20:00,
2013-06-05 16:25:00,71.6,47.3,30.15,SSW,207,0.0,3.0,42,0.00,,,0.00,Wunderground v.1.15,2013-06-05 20:25:00,
2013-06-05 16:30:00,71.6,46.6,30.15,SSW,207,1.0,3.0,41,0.00,,,0.00,Wunderground v.1.15,2013-06-05 20:30:00,
2013-06-05 16:35:00,72.3,48.5,30.15,SSW,207,0.0,3.0,43,0.00,,,0.00,Wunderground v.1.15,2013-06-05 20:35:00,
2013-06-05 16:40:00,72.1,47.1,30.15,SSW,208,0.0,3.0,41,0.00,,,0.00,Wunderground v.1.15,2013-06-05 20:40:00,
2013-06-05 16:45:00,72.3,49.2,30.15,SSW,208,2.0,3.0,44,0.00,,,0.00,Wunderground v.1.15,2013-06-05 20:45:00,
2013-06-05 16:50:00,71.7,48.0,30.15,SSW,197,1.0,5.0,43,0.00,,,0.00,Wunderground v.1.15,2013-06-05 20:50:00,
2013-06-05 16:55:00,71.1,46.2,30.15,SSW,211,1.0,5.0,41,0.00,,,0.00,Wunderground v.1.15,2013-06-05 20:55:00,
2013-06-05 17:00:00,71.0,47.4,30.14,SSW,211,0.0,5.0,43,0.00,,,0.00,Wunderground v.1.15,2013-06-05 21:00:00,
2013-06-05 17:05:00,70.8,47.8,30.15,SW,221,0.0,3.0,44,0.00,,,0.00,Wunderground v.1.15,2013-06-05 21:05:00,
2013-06-05 17:10:00,70.7,48.9,30.15,SW,221,1.0,3.0,46,0.00,,,0.00,Wunderground v.1.15,2013-06-05 21:10:00,
2013-06-05 17:15:00,70.5,48.7,30.15,SW,219,2.0,2.0,46,0.00,,,0.00,Wunderground v.1.15,2013-06-05 21:15:00,
2013-06-05 17:20:00,70.3,49.7,30.14,SW,219,1.0,3.0,48,0.00,,,0.00,Wunderground v.1.15,2013-06-05 21:20:00,
2013-06-05 17:25:00,70.0,48.8,30.15,SW,214,2.0,4.0,47,0.00,,,0.00,Wunderground v.1.15,2013-06-05 21:25:00,
2013-06-05 17:30:00,70.1,50.6,30.15,SW,214,0.0,4.0,50,0.00,,,0.00,Wunderground v.1.15,2013-06-05 21:30:00,
2013-06-05 17:35:00,70.3,50.8,30.15,SW,214,2.0,2.0,50,0.00,,,0.00,Wunderground v.1.15,2013-06-05 21:35:00,
2013-06-05 17:40:00,70.2,50.1,30.15,SW,214,1.0,2.0,49,0.00,,,0.00,Wunderground v.1.15,2013-06-05 21:40:00,
2013-06-05 17:45:00,70.1,49.5,30.14,SW,214,0.0,2.0,48,0.00,,,0.00,Wunderground v.1.15,2013-06-05 21:45:00,
2013-06-05 17:50:00,70.2,50.1,30.15,SSW,202,2.0,3.0,49,0.00,,,0.00,Wunderground v.1.15,2013-06-05 21:50:00,
2013-06-05 17:55:00,69.6,52.2,30.14,South,190,7.0,7.0,54,0.00,,,0.00,Wunderground v.1.15,2013-06-05 21:55:00,
2013-06-05 18:00:00,68.9,51.6,30.15,South,169,10.0,10.0,54,0.00,,,0.00,Wunderground v.1.15,2013-06-05 22:00:00,
2013-06-05 18:05:00,68.8,52.0,30.15,South,171,2.0,7.0,55,0.00,,,0.00,Wunderground v.1.15,2013-06-05 22:05:00,
2013-06-05 18:10:00,68.9,52.6,30.15,SE,145,4.0,7.0,56,0.00,,,0.00,Wunderground v.1.15,2013-06-05 22:10:00,
2013-06-05 18:15:00,68.9,52.6,30.15,SSE,160,7.0,8.0,56,0.00,,,0.00,Wunderground v.1.15,2013-06-05 22:15:00,
2013-06-05 18:20:00,68.6,52.8,30.15,SSE,150,5.0,9.0,57,0.00,,,0.00,Wunderground v.1.15,2013-06-05 22:20:00,
2013-06-05 18:25:00,68.0,51.2,30.15,SE,146,5.0,13.0,55,0.00,,,0.00,Wunderground v.1.15,2013-06-05 22:25:00,
2013-06-05 18:30:00,67.8,51.5,30.15,SW,229,3.0,13.0,56,0.00,,,0.00,Wunderground v.1.15,2013-06-05 22:30:00,
2013-06-05 18:35:00,67.6,51.8,30.15,South,190,4.0,11.0,57,0.00,,,0.00,Wunderground v.1.15,2013-06-05 22:35:00,
2013-06-05 18:40:00,67.5,51.7,30.15,SW,223,2.0,13.0,57,0.00,,,0.00,Wunderground v.1.15,2013-06-05 22:40:00,
2013-06-05 18:45:00,67.3,51.1,30.16,SSE,167,1.0,11.0,56,0.00,,,0.00,Wunderground v.1.15,2013-06-05 22:45:00,
2013-06-05 18:50:00,67.1,50.9,30.16,SSW,196,1.0,11.0,56,0.00,,,0.00,Wunderground v.1.15,2013-06-05 22:50:00,
2013-06-05 18:55:00,67.0,50.8,30.17,SW,216,7.0,11.0,56,0.00,,,0.00,Wunderground v.1.15,2013-06-05 22:55:00,
2013-06-05 19:00:00,66.7,50.5,30.17,SSW,208,2.0,11.0,56,0.00,,,0.00,Wunderground v.1.15,2013-06-05 23:00:00,
2013-06-05 19:05:00,66.5,50.8,30.17,SW,236,2.0,10.0,57,0.00,,,0.00,Wunderground v.1.15,2013-06-05 23:05:00,
2013-06-05 19:10:00,66.3,50.6,30.17,WSW,241,6.0,10.0,57,0.00,,,0.00,Wunderground v.1.15,2013-06-05 23:10:00,
2013-06-05 19:15:00,66.0,51.3,30.17,SSW,203,4.0,9.0,59,0.00,,,0.00,Wunderground v.1.15,2013-06-05 23:15:00,
2013-06-05 19:21:00,65.8,50.6,30.17,South,188,5.0,13.0,58,0.00,,,0.00,Wunderground v.1.15,2013-06-05 23:21:00,
2013-06-05 19:26:00,65.7,50.5,30.17,SW,236,5.0,7.0,58,0.00,,,0.00,Wunderground v.1.15,2013-06-05 23:26:00,
2013-06-05 19:31:00,65.5,50.8,30.17,South,175,2.0,7.0,59,0.00,,,0.00,Wunderground v.1.15,2013-06-05 23:31:00,
2013-06-05 19:36:00,65.3,50.6,30.17,SSE,158,1.0,6.0,59,0.00,,,0.00,Wunderground v.1.15,2013-06-05 23:36:00,
2013-06-05 19:41:00,65.1,50.4,30.17,SW,225,0.0,9.0,59,0.00,,,0.00,Wunderground v.1.15,2013-06-05 23:41:00,
2013-06-05 19:46:00,64.8,50.6,30.17,South,178,4.0,9.0,60,0.00,,,0.00,Wunderground v.1.15,2013-06-05 23:46:00,
2013-06-05 19:51:00,64.4,50.7,30.17,SSW,195,0.0,9.0,61,0.00,,,0.00,Wunderground v.1.15,2013-06-05 23:51:00,
2013-06-05 19:56:00,64.2,50.5,30.17,SSW,194,0.0,7.0,61,0.00,,,0.00,Wunderground v.1.15,2013-06-05 23:56:00,
2013-06-05 20:01:00,63.9,49.7,30.17,SSW,205,2.0,8.0,60,0.00,,,0.00,Wunderground v.1.15,2013-06-06 00:01:00,
2013-06-05 20:06:00,63.7,49.5,30.17,South,184,2.0,6.0,60,0.00,,,0.00,Wunderground v.1.15,2013-06-06 00:06:00,
2013-06-05 20:11:00,63.4,49.7,30.18,South,185,2.0,7.0,61,0.00,,,0.00,Wunderground v.1.15,2013-06-06 00:11:00,
2013-06-05 20:16:00,63.3,49.6,30.18,South,186,2.0,5.0,61,0.00,,,0.00,Wunderground v.1.15,2013-06-06 00:16:00,
2013-06-05 20:21:00,63.2,49.5,30.18,South,190,2.0,5.0,61,0.00,,,0.00,Wunderground v.1.15,2013-06-06 00:21:00,
2013-06-05 20:26:00,62.9,49.2,30.18,South,179,2.0,6.0,61,0.00,,,0.00,Wunderground v.1.15,2013-06-06 00:26:00,
2013-06-05 20:31:00,62.6,49.4,30.18,SSW,209,2.0,6.0,62,0.00,,,0.00,Wunderground v.1.15,2013-06-06 00:31:00,
2013-06-05 20:36:00,62.4,49.2,30.18,SSE,148,2.0,4.0,62,0.00,,,0.00,Wunderground v.1.15,2013-06-06 00:36:00,
2013-06-05 20:41:00,62.3,49.1,30.18,South,171,5.0,5.0,62,0.00,,,0.00,Wunderground v.1.15,2013-06-06 00:41:00,
2013-06-05 20:46:00,62.1,49.4,30.18,SSE,164,4.0,5.0,63,0.00,,,0.00,Wunderground v.1.15,2013-06-06 00:46:00,
2013-06-05 20:51:00,61.9,49.2,30.18,SSE,165,1.0,5.0,63,0.00,,,0.00,Wunderground v.1.15,2013-06-06 00:51:00,
2013-06-05 20:56:00,61.6,48.9,30.19,SSE,159,1.0,5.0,63,0.00,,,0.00,Wunderground v.1.15,2013-06-06 00:56:00,
2013-06-05 21:01:00,61.3,49.0,30.19,SSE,159,0.0,5.0,64,0.00,,,0.00,Wunderground v.1.15,2013-06-06 01:01:00,
2013-06-05 21:06:00,61.0,48.7,30.19,South,182,0.0,4.0,64,0.00,,,0.00,Wunderground v.1.15,2013-06-06 01:06:00,
2013-06-05 21:11:00,60.8,48.5,30.19,South,181,1.0,4.0,64,0.00,,,0.00,Wunderground v.1.15,2013-06-06 01:11:00,
2013-06-05 21:16:00,60.5,48.7,30.19,South,181,2.0,3.0,65,0.00,,,0.00,Wunderground v.1.15,2013-06-06 01:16:00,
2013-06-05 21:21:00,60.3,48.1,30.19,South,181,1.0,3.0,64,0.00,,,0.00,Wunderground v.1.15,2013-06-06 01:21:00,
2013-06-05 21:26:00,60.2,48.4,30.20,South,181,0.0,2.0,65,0.00,,,0.00,Wunderground v.1.15,2013-06-06 01:26:00,
2013-06-05 21:31:00,60.0,48.6,30.20,South,181,1.0,2.0,66,0.00,,,0.00,Wunderground v.1.15,2013-06-06 01:31:00,
2013-06-05 21:36:00,59.8,48.4,30.20,South,181,1.0,2.0,66,0.00,,,0.00,Wunderground v.1.15,2013-06-06 01:36:00,
2013-06-05 21:41:00,59.6,48.2,30.20,South,181,0.0,3.0,66,0.00,,,0.00,Wunderground v.1.15,2013-06-06 01:41:00,
2013-06-05 21:46:00,59.4,48.0,30.20,South,181,0.0,3.0,66,0.00,,,0.00,Wunderground v.1.15,2013-06-06 01:46:00,
2013-06-05 21:51:00,59.2,48.2,30.20,South,181,0.0,3.0,67,0.00,,,0.00,Wunderground v.1.15,2013-06-06 01:51:00,
2013-06-05 21:56:00,58.8,47.9,30.20,South,181,0.0,2.0,67,0.00,,,0.00,Wunderground v.1.15,2013-06-06 01:56:00,
2013-06-05 22:01:00,58.6,48.5,30.20,South,181,1.0,2.0,69,0.00,,,0.00,Wunderground v.1.15,2013-06-06 02:01:00,
2013-06-05 22:06:00,58.4,48.3,30.20,South,181,0.0,2.0,69,0.00,,,0.00,Wunderground v.1.15,2013-06-06 02:06:00,
2013-06-05 22:11:00,58.2,48.1,30.21,South,181,0.0,3.0,69,0.00,,,0.00,Wunderground v.1.15,2013-06-06 02:11:00,
2013-06-05 22:16:00,58.2,48.1,30.21,South,181,0.0,1.0,69,0.00,,,0.00,Wunderground v.1.15,2013-06-06 02:16:00,
2013-06-05 22:21:00,58.1,48.0,30.21,South,181,0.0,2.0,69,0.00,,,0.00,Wunderground v.1.15,2013-06-06 02:21:00,
2013-06-05 22:26:00,58.0,47.9,30.21,South,181,0.0,1.0,69,0.00,,,0.00,Wunderground v.1.15,2013-06-06 02:26:00,
2013-06-05 22:31:00,58.0,47.9,30.20,South,181,1.0,1.0,69,0.00,,,0.00,Wunderground v.1.15,2013-06-06 02:31:00,
2013-06-05 22:36:00,58.0,47.9,30.21,South,181,1.0,2.0,69,0.00,,,0.00,Wunderground v.1.15,2013-06-06 02:36:00,
2013-06-05 22:42:00,58.0,47.9,30.20,South,181,0.0,2.0,69,0.00,,,0.00,Wunderground v.1.15,2013-06-06 02:42:00,
2013-06-05 22:47:00,57.8,48.1,30.21,South,181,0.0,1.0,70,0.00,,,0.00,Wunderground v.1.15,2013-06-06 02:47:00,
2013-06-05 22:52:00,57.7,48.0,30.21,South,181,0.0,0.0,70,0.00,,,0.00,Wunderground v.1.15,2013-06-06 02:52:00,
2013-06-05 22:57:00,57.6,47.9,30.20,South,181,1.0,2.0,70,0.00,,,0.00,Wunderground v.1.15,2013-06-06 02:57:00,
2013-06-05 23:02:00,57.5,48.2,30.20,South,181,0.0,0.0,71,0.00,,,0.00,Wunderground v.1.15,2013-06-06 03:02:00,
2013-06-05 23:07:00,57.3,47.6,30.20,South,181,0.0,2.0,70,0.00,,,0.00,Wunderground v.1.15,2013-06-06 03:07:00,
2013-06-05 23:12:00,57.2,47.9,30.20,South,181,1.0,1.0,71,0.00,,,0.00,Wunderground v.1.15,2013-06-06 03:12:00,
2013-06-05 23:17:00,57.1,47.8,30.21,South,181,0.0,2.0,71,0.00,,,0.00,Wunderground v.1.15,2013-06-06 03:17:00,
2013-06-05 23:22:00,57.0,47.7,30.21,South,181,0.0,0.0,71,0.00,,,0.00,Wunderground v.1.15,2013-06-06 03:22:00,
2013-06-05 23:27:00,56.9,47.6,30.21,South,181,0.0,1.0,71,0.00,,,0.00,Wunderground v.1.15,2013-06-06 03:27:00,
2013-06-05 23:32:00,56.8,47.9,30.20,South,181,0.0,0.0,72,0.00,,,0.00,Wunderground v.1.15,2013-06-06 03:32:00,
2013-06-05 23:37:00,56.6,47.7,30.20,South,181,0.0,2.0,72,0.00,,,0.00,Wunderground v.1.15,2013-06-06 03:37:00,
2013-06-05 23:38:00,56.3,47.8,30.20,South,181,0.0,2.0,73,0.00,,,0.00,Wunderground v.1.15,2013-06-06 03:38:00,
2013-06-05 23:39:00,56.3,47.8,30.20,South,181,0.0,2.0,73,0.00,,,0.00,Wunderground v.1.15,2013-06-06 03:39:00,
2013-06-05 23:40:00,56.3,48.1,30.20,South,181,0.0,0.0,74,0.00,,,0.00,Wunderground v.1.15,2013-06-06 03:40:00,
2013-06-05 23:41:00,56.2,47.7,30.20,South,181,2.0,2.0,73,0.00,,,0.00,Wunderground v.1.15,2013-06-06 03:41:00,
2013-06-05 23:42:00,56.5,47.9,30.20,South,181,2.0,3.0,73,0.00,,,0.00,Wunderground v.1.15,2013-06-06 03:42:00,
2013-06-05 23:43:00,56.2,47.7,30.20,South,181,0.0,3.0,73,0.00,,,0.00,Wunderground v.1.15,2013-06-06 03:43:00,
2013-06-05 23:44:00,56.2,47.7,30.20,South,181,1.0,3.0,73,0.00,,,0.00,Wunderground v.1.15,2013-06-06 03:44:00,
2013-06-05 23:45:00,56.2,47.7,30.20,South,181,1.0,3.0,73,0.00,,,0.00,Wunderground v.1.15,2013-06-06 03:45:00,
2013-06-05 23:46:00,56.2,47.7,30.20,South,181,0.0,3.0,73,0.00,,,0.00,Wunderground v.1.15,2013-06-06 03:46:00,
2013-06-05 23:47:00,56.4,47.9,30.20,South,181,0.0,3.0,73,0.00,,,0.00,Wunderground v.1.15,2013-06-06 03:47:00,
2013-06-05 23:52:00,56.4,47.9,30.20,South,181,0.0,2.0,73,0.00,,,0.00,Wunderground v.1.15,2013-06-06 03:52:00,
2013-06-05 23:57:00,56.4,48.2,30.20,South,181,0.0,2.0,74,0.00,,,0.00,Wunderground v.1.15,2013-06-06 03:57:00,